Observations for EAST MIDLANDS, United Kingdom (EGNX)

EGNX 191320Z 28004KT 200V340 CAVOK 19/08 Q1031  
EGNX 191250Z 23005KT 190V270 CAVOK 18/10 Q1031 RERA 
EGNX 191220Z 25005KT 190V310 0450 RA NSC 19/08 Q1031
EGNX 191150Z VRB03KT CAVOK 18/10 Q1031  
EGNX 191120Z 29004KT 250V350 CAVOK 17/10 Q1032  
EGNX 191050Z VRB03KT CAVOK 17/11 Q1032  
EGNX 191020Z VRB03KT CAVOK 17/11 Q1032  
EGNX 190950Z VRB02KT CAVOK 16/10 Q1032  
EGNX 190920Z VRB03KT CAVOK 15/10 Q1032  
EGNX 190850Z VRB01KT CAVOK 15/10 Q1032  
EGNX 190820Z 00000KT CAVOK 13/10 Q1032  
EGNX 190750Z VRB02KT CAVOK 11/10 Q1032  
EGNX 190720Z VRB01KT CAVOK 10/09 Q1031  
EGNX 190650Z 32002KT 9999 VCFG NSC 09/09 Q1031  
EGNX 190620Z 26004KT 9999 VCFG NSC 08/07 Q1031  
EGNX 190550Z 29003KT 9999 VCFG NSC 08/08 Q1031  
EGNX 190520Z 31005KT 9999 VCFG NSC 08/08 Q1031  
EGNX 190450Z 30003KT CAVOK 09/09 Q1030  
EGNX 190420Z 30003KT CAVOK 09/08 Q1030  
EGNX 190350Z 00000KT CAVOK 08/08 Q1030  
EGNX 190320Z 28004KT CAVOK 08/07 Q1030  
EGNX 190250Z 31005KT CAVOK 10/09 Q1030  
EGNX 190220Z 31003KT CAVOK 10/09 Q1030  
EGNX 190120Z 30003KT CAVOK 12/09 Q1031  
EGNX 190050Z 30004KT CAVOK 11/10 Q1031  
EGNX 190020Z 30004KT CAVOK 11/09 Q1031  
EGNX 182350Z 30004KT CAVOK 12/10 Q1031  
EGNX 182320Z 30004KT CAVOK 12/10 Q1031  
EGNX 182250Z 32004KT CAVOK 13/10 Q1031  
EGNX 182220Z 31004KT CAVOK 14/10 Q1031  
EGNX 182150Z 31004KT CAVOK 14/10 Q1031  
EGNX 182050Z 28004KT CAVOK 13/09 Q1030  
EGNX 182020Z 29004KT CAVOK 14/09 Q1030  
EGNX 181950Z 28003KT CAVOK 14/08 Q1030  
EGNX 181920Z 30004KT 260V320 CAVOK 14/08 Q1030  
EGNX 181850Z 31003KT CAVOK 15/08 Q1030  
EGNX 181820Z 33003KT CAVOK 14/08 Q1029  
EGNX 181750Z 34006KT CAVOK 15/08 Q1029  
EGNX 181720Z 35006KT CAVOK 16/09 Q1029  
EGNX 181650Z 32005KT 290V350 CAVOK 16/09 Q1029  
EGNX 181620Z 29005KT 260V320 CAVOK 17/10 Q1029  
EGNX 181550Z 26007KT CAVOK 17/09 Q1029  
EGNX 181520Z 27006KT CAVOK 17/09 Q1029  
EGNX 181450Z 28005KT 210V340 CAVOK 17/08 Q1029  
EGNX 181350Z 28006KT 250V330 CAVOK 17/08 Q1029  
EGNX 181320Z 32006KT 290V010 CAVOK 17/08 Q1030  
EGNX 181250Z 31005KT 260V020 CAVOK 17/08 Q1030